createdAt,value
2018-09-30T00:00:07.080Z,5.49
2018-09-30T00:01:07.065Z,5.16
2018-09-30T00:02:07.109Z,4.94
2018-09-30T00:03:07.045Z,4.67
2018-09-30T00:04:07.058Z,4.54
2018-09-30T00:05:07.049Z,4.34
2018-09-30T00:06:07.026Z,4.33
2018-09-30T00:07:07.004Z,4.34
2018-09-30T00:08:07.055Z,4.36
2018-09-30T00:09:06.992Z,4.29
2018-09-30T00:10:06.975Z,4.46
2018-09-30T00:11:06.954Z,4.62
2018-09-30T00:12:06.954Z,4.98
2018-09-30T00:13:06.964Z,5.59
2018-09-30T00:14:06.936Z,5.73
2018-09-30T00:15:06.929Z,5.68
2018-09-30T00:16:06.902Z,5.53
2018-09-30T00:17:06.899Z,5.57
2018-09-30T00:18:06.908Z,5.27
2018-09-30T00:19:06.879Z,5.04
2018-09-30T00:20:06.899Z,4.77
2018-09-30T00:21:06.858Z,4.52
2018-09-30T00:22:06.839Z,4.39
2018-09-30T00:23:06.855Z,4.34
2018-09-30T00:24:06.852Z,4.18
2018-09-30T00:25:06.823Z,4.25
2018-09-30T00:26:06.795Z,4.26
2018-09-30T00:27:06.793Z,4.28
2018-09-30T00:28:06.847Z,4.14
2018-09-30T00:29:06.760Z,3.97
2018-09-30T00:30:06.770Z,3.90
2018-09-30T00:31:06.750Z,3.90
2018-09-30T00:32:06.731Z,4.00
2018-09-30T00:33:06.750Z,4.01
2018-09-30T00:34:06.722Z,4.08
2018-09-30T00:35:06.700Z,4.15
2018-09-30T00:36:06.717Z,4.83
2018-09-30T00:37:06.678Z,5.13
2018-09-30T00:38:06.709Z,5.19
2018-09-30T00:39:06.650Z,5.28
2018-09-30T00:40:06.669Z,5.45
2018-09-30T00:41:06.643Z,5.45
2018-09-30T00:42:06.619Z,5.55
2018-09-30T00:43:06.624Z,5.75
2018-09-30T00:44:06.600Z,5.70
2018-09-30T00:45:06.589Z,5.20
2018-09-30T00:46:06.586Z,5.27
2018-09-30T00:47:06.565Z,5.86
2018-09-30T00:48:06.590Z,5.91
2018-09-30T00:49:06.562Z,6.01
2018-09-30T00:50:06.528Z,5.74
2018-09-30T00:51:06.532Z,5.53
2018-09-30T00:52:06.513Z,5.50
2018-09-30T00:53:06.522Z,5.60
2018-09-30T00:54:06.492Z,5.45
2018-09-30T00:55:06.476Z,5.07
2018-09-30T00:56:06.485Z,4.67
2018-09-30T00:57:06.450Z,4.25
2018-09-30T00:58:06.479Z,4.16
2018-09-30T00:59:06.437Z,4.07
2018-09-30T01:00:06.440Z,3.97
2018-09-30T01:01:06.407Z,4.42
2018-09-30T01:02:06.398Z,5.09
2018-09-30T01:03:06.409Z,5.83
2018-09-30T01:04:06.386Z,5.75
2018-09-30T01:05:06.387Z,5.50
2018-09-30T01:06:06.349Z,5.05
2018-09-30T01:07:06.335Z,4.75
2018-09-30T01:08:06.391Z,4.80
2018-09-30T01:09:06.325Z,5.37
2018-09-30T01:10:06.323Z,5.71
2018-09-30T01:11:06.313Z,5.60
2018-09-30T01:12:06.293Z,5.09
2018-09-30T01:13:06.298Z,4.69
2018-09-30T01:14:06.305Z,4.36
2018-09-30T01:15:06.256Z,4.25
2018-09-30T01:16:06.242Z,4.33
2018-09-30T01:17:06.225Z,5.38
2018-09-30T01:18:06.259Z,5.93
2018-09-30T01:19:06.207Z,5.93
2018-09-30T01:20:06.198Z,5.93
2018-09-30T01:21:06.184Z,5.92
2018-09-30T01:22:06.238Z,5.93
2018-09-30T01:23:06.180Z,5.92
2018-09-30T01:24:06.144Z,5.60
2018-09-30T01:25:06.152Z,5.59
2018-09-30T01:26:06.154Z,5.49
2018-09-30T01:27:06.116Z,5.45
2018-09-30T01:28:06.137Z,5.50
2018-09-30T01:29:06.107Z,5.55
2018-09-30T01:30:06.127Z,5.82
2018-09-30T01:31:06.078Z,5.88
2018-09-30T01:32:06.068Z,5.43
2018-09-30T01:33:06.069Z,4.91
2018-09-30T01:34:06.037Z,4.62
2018-09-30T01:35:06.059Z,4.42
2018-09-30T01:36:06.014Z,4.51
2018-09-30T01:37:06.009Z,5.25
2018-09-30T01:38:06.021Z,5.50
2018-09-30T01:39:05.989Z,5.50
2018-09-30T01:40:05.984Z,5.56
2018-09-30T01:41:05.963Z,5.49
2018-09-30T01:42:05.964Z,5.09
2018-09-30T01:43:05.967Z,4.80
2018-09-30T01:44:05.970Z,4.67
2018-09-30T01:45:05.921Z,5.12
2018-09-30T01:46:05.907Z,5.49
2018-09-30T01:47:05.897Z,5.50
2018-09-30T01:48:05.885Z,5.64
2018-09-30T01:49:05.897Z,5.71
2018-09-30T01:50:05.874Z,5.95
2018-09-30T01:51:05.849Z,5.86
2018-09-30T01:52:05.837Z,5.73
2018-09-30T01:53:05.829Z,5.60
2018-09-30T01:54:05.839Z,5.57
2018-09-30T01:55:05.854Z,5.49
2018-09-30T01:56:05.802Z,5.25
2018-09-30T01:57:05.784Z,5.30
2018-09-30T01:58:05.771Z,5.40
2018-09-30T01:59:05.814Z,5.59
2018-09-30T02:00:05.759Z,5.43
2018-09-30T02:01:05.743Z,4.89
2018-09-30T02:02:05.734Z,5.28
2018-09-30T02:03:05.712Z,5.81
2018-09-30T02:04:05.738Z,5.75
2018-09-30T02:05:05.696Z,6.00
2018-09-30T02:06:05.690Z,6.32
2018-09-30T02:07:05.681Z,6.00
2018-09-30T02:08:05.682Z,5.48
2018-09-30T02:09:05.673Z,5.09
2018-09-30T02:10:05.678Z,5.40
2018-09-30T02:11:05.639Z,6.03
2018-09-30T02:12:05.642Z,6.54
2018-09-30T02:13:05.607Z,6.66
2018-09-30T02:14:05.623Z,6.76
2018-09-30T02:15:05.584Z,6.46
2018-09-30T02:16:05.573Z,6.18
2018-09-30T02:17:05.570Z,5.91
2018-09-30T02:18:05.560Z,5.66
2018-09-30T02:19:05.576Z,5.41
2018-09-30T02:20:05.534Z,5.14
2018-09-30T02:21:05.521Z,5.05
2018-09-30T02:22:05.520Z,5.34
2018-09-30T02:23:05.565Z,5.59
2018-09-30T02:24:05.543Z,4.98
2018-09-30T02:25:05.481Z,4.70
2018-09-30T02:26:05.473Z,4.47
2018-09-30T02:27:05.448Z,4.10
2018-09-30T02:28:05.441Z,3.92
2018-09-30T02:29:05.457Z,4.24
2018-09-30T02:30:05.419Z,4.47
2018-09-30T02:31:05.471Z,4.34
2018-09-30T02:32:05.419Z,4.24
2018-09-30T02:33:05.397Z,3.97
2018-09-30T02:34:05.400Z,3.85
2018-09-30T02:35:05.433Z,3.76
2018-09-30T02:36:05.354Z,3.68
2018-09-30T02:37:05.354Z,3.68
2018-09-30T02:38:05.332Z,3.62
2018-09-30T02:39:05.343Z,3.58
2018-09-30T02:40:05.314Z,3.54
2018-09-30T02:41:05.328Z,3.71
2018-09-30T02:42:05.286Z,3.71
2018-09-30T02:43:05.277Z,3.67
2018-09-30T02:44:05.285Z,3.71
2018-09-30T02:45:05.273Z,3.67
2018-09-30T02:46:05.252Z,3.92
2018-09-30T02:47:05.233Z,4.37
2018-09-30T02:48:05.233Z,5.04
2018-09-30T02:49:05.250Z,5.14
2018-09-30T02:50:05.210Z,4.72
2018-09-30T02:51:05.186Z,4.19
2018-09-30T02:52:05.188Z,4.04
2018-09-30T02:53:05.249Z,3.79
2018-09-30T02:54:05.186Z,3.68
2018-09-30T02:55:05.141Z,3.58
2018-09-30T02:56:05.128Z,3.57
2018-09-30T02:57:05.144Z,3.58
2018-09-30T02:58:05.128Z,3.50
2018-09-30T02:59:05.121Z,3.18
2018-09-30T03:00:05.089Z,3.06
2018-09-30T03:01:05.077Z,3.03
2018-09-30T03:02:05.097Z,3.00
2018-09-30T03:03:05.065Z,3.00
2018-09-30T03:04:05.071Z,3.03
2018-09-30T03:05:05.043Z,3.30
2018-09-30T03:06:05.026Z,3.25
2018-09-30T03:07:05.013Z,3.09
2018-09-30T03:08:05.000Z,2.95
2018-09-30T03:09:05.014Z,3.07
2018-09-30T03:10:05.012Z,3.10
2018-09-30T03:11:04.975Z,3.15
2018-09-30T03:12:04.984Z,3.13
2018-09-30T03:13:04.939Z,3.07
2018-09-30T03:14:04.954Z,3.12
2018-09-30T03:15:04.920Z,3.02
2018-09-30T03:16:04.961Z,3.06
2018-09-30T03:17:04.910Z,3.03
2018-09-30T03:18:04.891Z,3.02
2018-09-30T03:19:04.901Z,3.15
2018-09-30T03:20:04.906Z,3.16
2018-09-30T03:21:04.853Z,3.13
2018-09-30T03:22:04.857Z,3.16
2018-09-30T03:23:04.835Z,3.15
2018-09-30T03:24:04.841Z,3.25
2018-09-30T03:25:04.850Z,3.15
2018-09-30T03:26:04.800Z,3.82
2018-09-30T03:27:04.788Z,4.50
2018-09-30T03:28:04.779Z,5.09
2018-09-30T03:29:04.808Z,5.19
2018-09-30T03:30:04.757Z,5.41
2018-09-30T03:31:04.744Z,5.27
2018-09-30T03:32:04.731Z,5.04
2018-09-30T03:33:04.751Z,4.95
2018-09-30T03:34:04.708Z,4.83
2018-09-30T03:35:04.721Z,4.70
2018-09-30T03:36:04.695Z,4.55
2018-09-30T03:37:04.695Z,4.33
2018-09-30T03:38:04.673Z,4.16
2018-09-30T03:39:04.668Z,3.68
2018-09-30T03:40:04.665Z,3.64
2018-09-30T03:41:04.665Z,3.97
2018-09-30T03:42:04.641Z,4.29
2018-09-30T03:43:04.612Z,4.04
2018-09-30T03:44:04.607Z,4.24
2018-09-30T03:45:04.616Z,4.08
2018-09-30T03:46:04.587Z,3.79
2018-09-30T03:47:04.581Z,3.52
2018-09-30T03:48:04.569Z,3.65
2018-09-30T03:49:04.542Z,3.71
2018-09-30T03:50:04.548Z,3.36
2018-09-30T03:51:04.529Z,3.03
2018-09-30T03:52:04.518Z,2.98
2018-09-30T03:53:04.540Z,2.91
2018-09-30T03:54:04.495Z,2.95
2018-09-30T03:55:04.498Z,3.53
2018-09-30T03:56:04.470Z,3.85
2018-09-30T03:57:04.455Z,3.68
2018-09-30T03:58:04.444Z,3.31
2018-09-30T03:59:04.452Z,3.02
2018-09-30T04:00:04.455Z,2.88
2018-09-30T04:01:04.404Z,2.70
2018-09-30T04:02:04.400Z,2.73
2018-09-30T04:03:04.384Z,3.23
2018-09-30T04:04:04.374Z,3.71
2018-09-30T04:05:04.399Z,4.10
2018-09-30T04:06:04.360Z,4.34
2018-09-30T04:07:04.365Z,4.47
2018-09-30T04:08:04.342Z,4.46
2018-09-30T04:09:04.339Z,4.43
2018-09-30T04:10:04.384Z,4.59
2018-09-30T04:11:04.309Z,4.33
2018-09-30T04:12:04.289Z,4.47
2018-09-30T04:13:04.276Z,4.88
2018-09-30T04:14:04.271Z,5.55
2018-09-30T04:15:04.287Z,5.81
2018-09-30T04:16:04.247Z,5.68
2018-09-30T04:17:04.336Z,5.48
2018-09-30T04:18:04.223Z,4.65
2018-09-30T04:19:04.254Z,4.00
2018-09-30T04:20:04.231Z,3.39
2018-09-30T04:21:04.185Z,3.18
2018-09-30T04:22:04.198Z,3.12
2018-09-30T04:23:04.171Z,3.12
2018-09-30T04:24:04.164Z,3.03
2018-09-30T04:25:04.173Z,3.00
2018-09-30T04:26:04.133Z,3.06
2018-09-30T04:27:04.126Z,3.03
2018-09-30T04:28:04.130Z,3.00
2018-09-30T04:29:04.112Z,3.06
2018-09-30T04:30:04.109Z,3.75
2018-09-30T04:31:04.079Z,4.34
2018-09-30T04:32:04.067Z,4.51
2018-09-30T04:33:04.075Z,4.73
2018-09-30T04:34:04.102Z,4.76
2018-09-30T04:35:04.055Z,4.52
2018-09-30T04:36:04.037Z,4.18
2018-09-30T04:37:04.011Z,4.18
2018-09-30T04:38:04.000Z,4.29
2018-09-30T04:39:03.992Z,4.86
2018-09-30T04:40:03.998Z,5.10
2018-09-30T04:41:03.966Z,5.12
2018-09-30T04:42:04.010Z,4.88
2018-09-30T04:43:03.942Z,4.65
2018-09-30T04:44:03.939Z,4.92
2018-09-30T04:45:03.944Z,4.92
2018-09-30T04:46:03.913Z,4.76
2018-09-30T04:47:03.901Z,4.79
2018-09-30T04:48:03.889Z,4.86
2018-09-30T04:49:03.875Z,5.01
2018-09-30T04:50:03.896Z,4.89
2018-09-30T04:51:03.859Z,4.86
2018-09-30T04:52:03.878Z,4.83
2018-09-30T04:53:03.852Z,4.77
2018-09-30T04:54:03.833Z,4.46
2018-09-30T04:55:03.829Z,4.76
2018-09-30T04:56:03.809Z,5.16
2018-09-30T04:57:03.810Z,5.43
2018-09-30T04:58:03.793Z,5.34
2018-09-30T04:59:03.767Z,5.02
2018-09-30T05:00:03.785Z,4.84
2018-09-30T05:01:03.752Z,4.59
2018-09-30T05:02:03.743Z,4.37
2018-09-30T05:03:03.724Z,4.26
2018-09-30T05:04:03.715Z,4.29
2018-09-30T05:05:03.748Z,4.29
2018-09-30T05:06:03.690Z,4.32
2018-09-30T05:07:03.685Z,4.16
2018-09-30T05:08:03.675Z,4.14
2018-09-30T05:09:03.652Z,3.98
2018-09-30T05:10:03.672Z,3.98
2018-09-30T05:11:03.658Z,4.04
2018-09-30T05:12:03.624Z,3.98
2018-09-30T05:13:03.614Z,3.97
2018-09-30T05:14:03.595Z,4.04
2018-09-30T05:15:03.617Z,4.08
2018-09-30T05:16:03.665Z,4.32
2018-09-30T05:17:03.611Z,4.76
2018-09-30T05:18:03.604Z,5.50
2018-09-30T05:19:03.586Z,5.70
2018-09-30T05:20:03.537Z,5.56
2018-09-30T05:21:03.546Z,5.27
2018-09-30T05:22:03.513Z,5.09
2018-09-30T05:23:03.501Z,4.91
2018-09-30T05:24:03.507Z,4.67
2018-09-30T05:25:03.479Z,4.44
2018-09-30T05:26:03.497Z,4.37
2018-09-30T05:27:03.473Z,4.21
2018-09-30T05:28:03.451Z,4.32
2018-09-30T05:29:03.430Z,4.26
2018-09-30T05:30:03.426Z,4.39
2018-09-30T05:31:03.479Z,4.39
2018-09-30T05:32:03.400Z,4.28
2018-09-30T05:33:03.407Z,4.22
2018-09-30T05:34:03.377Z,4.16
2018-09-30T05:35:03.364Z,4.28
2018-09-30T05:36:03.392Z,4.33
2018-09-30T05:37:03.383Z,4.25
2018-09-30T05:38:03.344Z,4.16
2018-09-30T05:39:03.330Z,4.04
2018-09-30T05:40:03.318Z,4.03
2018-09-30T05:41:03.332Z,3.97
2018-09-30T05:42:03.309Z,3.97
2018-09-30T05:43:03.283Z,3.89
2018-09-30T05:44:03.271Z,4.29
2018-09-30T05:45:03.252Z,4.44
2018-09-30T05:46:03.267Z,4.62
2018-09-30T05:47:03.249Z,4.52
2018-09-30T05:48:03.235Z,4.42
2018-09-30T05:49:03.224Z,4.26
2018-09-30T05:50:03.225Z,4.25
2018-09-30T05:51:03.242Z,4.12
2018-09-30T05:52:03.179Z,4.19
2018-09-30T05:53:03.169Z,4.18
2018-09-30T05:54:03.161Z,4.15
2018-09-30T05:55:03.165Z,4.14
2018-09-30T05:56:03.198Z,4.54
2018-09-30T05:57:03.122Z,4.95
2018-09-30T05:58:03.190Z,5.05
2018-09-30T05:59:03.105Z,4.83
2018-09-30T06:00:03.095Z,4.65
2018-09-30T06:01:03.114Z,4.51
2018-09-30T06:02:03.073Z,4.29
2018-09-30T06:03:03.086Z,4.26
2018-09-30T06:04:03.135Z,4.40
2018-09-30T06:05:03.043Z,4.40
2018-09-30T06:06:03.066Z,4.80
2018-09-30T06:07:03.063Z,5.07
2018-09-30T06:08:03.003Z,5.25
2018-09-30T06:09:03.045Z,5.35
2018-09-30T06:10:02.996Z,5.19
2018-09-30T06:11:03.009Z,4.95
2018-09-30T06:12:02.965Z,4.94
2018-09-30T06:13:02.962Z,5.04
2018-09-30T06:14:03.120Z,4.91
2018-09-30T06:15:02.932Z,4.84
2018-09-30T06:16:03.039Z,4.83
2018-09-30T06:17:02.911Z,4.62
2018-09-30T06:18:02.898Z,4.47
2018-09-30T06:19:02.927Z,4.50
2018-09-30T06:20:02.879Z,4.52
2018-09-30T06:21:02.892Z,4.65
2018-09-30T06:22:02.854Z,4.50
2018-09-30T06:23:02.846Z,4.57
2018-09-30T06:24:02.918Z,4.42
2018-09-30T06:25:02.827Z,4.51
2018-09-30T06:26:02.834Z,4.47
2018-09-30T06:27:02.798Z,4.43
2018-09-30T06:28:02.842Z,4.43
2018-09-30T06:29:02.783Z,4.40
2018-09-30T06:30:02.768Z,4.43
2018-09-30T06:31:02.771Z,4.44
2018-09-30T06:32:02.847Z,4.54
2018-09-30T06:33:02.777Z,4.70
2018-09-30T06:34:02.740Z,4.80
2018-09-30T06:35:02.717Z,4.65
2018-09-30T06:36:02.718Z,4.67
2018-09-30T06:37:02.742Z,4.55
2018-09-30T06:38:02.720Z,4.65
2018-09-30T06:39:02.667Z,4.80
2018-09-30T06:40:02.664Z,5.09
2018-09-30T06:41:02.695Z,5.25
2018-09-30T06:42:02.641Z,5.27
2018-09-30T06:43:02.694Z,5.52
2018-09-30T06:44:02.628Z,5.38
2018-09-30T06:45:02.714Z,5.49
2018-09-30T06:46:02.621Z,5.59
2018-09-30T06:47:02.625Z,5.88
2018-09-30T06:48:02.563Z,6.10
2018-09-30T06:49:02.565Z,6.36
2018-09-30T06:50:02.548Z,6.51
2018-09-30T06:51:02.662Z,6.40
2018-09-30T06:52:02.556Z,6.21
2018-09-30T06:53:02.523Z,6.04
2018-09-30T06:54:02.506Z,5.91
2018-09-30T06:55:02.498Z,6.16
2018-09-30T06:56:02.545Z,6.36
2018-09-30T06:57:02.479Z,6.35
2018-09-30T06:58:02.458Z,6.13
2018-09-30T06:59:02.460Z,6.07
2018-09-30T07:00:02.442Z,6.25
2018-09-30T07:01:02.460Z,6.46
2018-09-30T07:02:02.425Z,6.40
2018-09-30T07:03:02.447Z,6.29
2018-09-30T07:04:02.388Z,6.14
2018-09-30T07:05:02.420Z,6.06
2018-09-30T07:06:02.403Z,6.30
2018-09-30T07:07:02.395Z,6.28
2018-09-30T07:08:02.359Z,6.18
2018-09-30T07:09:02.348Z,6.40
2018-09-30T07:10:02.381Z,6.40
2018-09-30T07:11:02.316Z,6.53
2018-09-30T07:12:02.337Z,6.54
2018-09-30T07:13:02.302Z,6.53
2018-09-30T07:14:02.281Z,6.48
2018-09-30T07:15:02.278Z,6.47
2018-09-30T07:16:02.269Z,6.58
2018-09-30T07:17:02.347Z,6.66
2018-09-30T07:18:02.271Z,6.65
2018-09-30T07:19:02.235Z,6.62
2018-09-30T07:20:02.233Z,6.53
2018-09-30T07:21:02.207Z,6.47
2018-09-30T07:22:02.214Z,6.54
2018-09-30T07:23:02.200Z,6.54
2018-09-30T07:24:02.205Z,6.76
2018-09-30T07:25:02.165Z,6.98
2018-09-30T07:26:02.156Z,7.13
2018-09-30T07:27:02.163Z,7.13
2018-09-30T07:28:02.136Z,7.09
2018-09-30T07:29:02.123Z,7.09
2018-09-30T07:30:02.135Z,7.13
2018-09-30T07:31:02.093Z,7.62
2018-09-30T07:32:02.104Z,7.85
2018-09-30T07:33:02.079Z,7.90
2018-09-30T07:34:02.089Z,7.81
2018-09-30T07:35:02.045Z,7.75
2018-09-30T07:36:02.052Z,7.75
2018-09-30T07:37:02.059Z,7.69
2018-09-30T07:38:02.019Z,7.67
2018-09-30T07:39:02.015Z,7.66
2018-09-30T07:40:01.993Z,7.66
2018-09-30T07:41:01.997Z,7.63
2018-09-30T07:42:02.046Z,7.79
2018-09-30T07:43:01.952Z,7.81
2018-09-30T07:44:01.947Z,7.69
2018-09-30T07:45:01.974Z,7.77
2018-09-30T07:46:01.933Z,7.81
2018-09-30T07:47:01.936Z,8.07
2018-09-30T07:48:01.915Z,8.39
2018-09-30T07:49:01.893Z,8.44
2018-09-30T07:50:01.887Z,8.60
2018-09-30T07:51:01.877Z,8.53
2018-09-30T07:52:01.916Z,8.48
2018-09-30T07:53:01.849Z,8.54
2018-09-30T07:54:01.836Z,8.48
2018-09-30T07:55:01.825Z,8.50
2018-09-30T07:56:01.814Z,8.44
2018-09-30T07:57:01.827Z,8.40
2018-09-30T07:58:01.798Z,8.40
2018-09-30T07:59:01.782Z,8.35
2018-09-30T08:00:01.777Z,8.33
2018-09-30T08:01:01.793Z,8.20
2018-09-30T08:02:01.766Z,8.15
2018-09-30T08:03:01.734Z,8.25
2018-09-30T08:04:01.732Z,8.32
2018-09-30T08:05:01.709Z,8.42
2018-09-30T08:06:01.712Z,8.42
2018-09-30T08:07:01.718Z,8.45
2018-09-30T08:08:01.678Z,8.51
2018-09-30T08:09:01.665Z,8.66
2018-09-30T08:10:01.653Z,8.86
2018-09-30T08:11:01.644Z,8.91
2018-09-30T08:12:01.659Z,8.91
2018-09-30T08:13:01.631Z,8.93
2018-09-30T08:14:01.638Z,8.96
2018-09-30T08:15:01.633Z,9.06
2018-09-30T08:16:01.592Z,9.20
2018-09-30T08:17:01.671Z,9.27
2018-09-30T08:18:01.571Z,9.70
2018-09-30T08:19:01.581Z,9.79
2018-09-30T08:20:01.548Z,9.71
2018-09-30T08:21:01.539Z,9.68
2018-09-30T08:22:01.542Z,9.76
2018-09-30T08:23:01.512Z,9.83
2018-09-30T08:24:01.579Z,9.76
2018-09-30T08:25:01.494Z,9.79
2018-09-30T08:26:01.503Z,10.00
2018-09-30T08:27:01.484Z,10.04
2018-09-30T08:28:01.459Z,10.07
2018-09-30T08:29:01.499Z,9.86
2018-09-30T08:30:01.429Z,9.91
2018-09-30T08:31:01.435Z,10.18
2018-09-30T08:32:01.472Z,10.32
2018-09-30T08:33:01.399Z,10.60
2018-09-30T08:34:01.394Z,10.62
2018-09-30T08:35:01.384Z,10.63
2018-09-30T08:36:01.389Z,10.56
2018-09-30T08:37:01.374Z,10.60
2018-09-30T08:38:01.341Z,10.78
2018-09-30T08:39:01.355Z,10.63
2018-09-30T08:40:01.427Z,10.66
2018-09-30T08:41:01.318Z,10.59
2018-09-30T08:42:01.324Z,10.55
2018-09-30T08:43:01.306Z,10.42
2018-09-30T08:44:01.333Z,10.43
2018-09-30T08:45:01.327Z,10.36
2018-09-30T08:46:01.256Z,10.43
2018-09-30T08:47:01.264Z,10.52
2018-09-30T08:48:01.252Z,10.42
2018-09-30T08:49:01.219Z,10.52
2018-09-30T08:50:01.211Z,10.46
2018-09-30T08:51:01.193Z,10.44
2018-09-30T08:52:01.198Z,10.43
2018-09-30T08:53:01.199Z,10.43
2018-09-30T08:54:01.241Z,10.55
2018-09-30T08:55:01.175Z,10.59
2018-09-30T08:56:01.222Z,10.66
2018-09-30T08:57:01.134Z,10.73
2018-09-30T08:58:01.140Z,10.91
2018-09-30T08:59:01.133Z,10.89
2018-09-30T09:00:01.105Z,10.89
2018-09-30T09:01:01.117Z,10.84
2018-09-30T09:02:01.078Z,10.95
2018-09-30T09:03:01.130Z,10.95
2018-09-30T09:04:01.057Z,11.03
2018-09-30T09:05:01.041Z,11.03
2018-09-30T09:06:01.037Z,10.89
2018-09-30T09:07:01.037Z,10.89
2018-09-30T09:08:01.037Z,10.89
2018-09-30T09:09:00.998Z,10.95
2018-09-30T09:10:00.985Z,10.95
2018-09-30T09:11:00.975Z,11.03
2018-09-30T09:12:01.009Z,11.07
2018-09-30T09:13:00.972Z,11.03
2018-09-30T09:14:00.980Z,11.03
2018-09-30T09:15:00.925Z,10.99
2018-09-30T09:16:00.925Z,11.09
2018-09-30T09:17:00.909Z,11.21
2018-09-30T09:18:00.926Z,11.21
2018-09-30T09:19:00.884Z,11.34
2018-09-30T09:20:00.913Z,11.39
2018-09-30T09:21:00.873Z,11.39
2018-09-30T09:22:00.862Z,11.43
2018-09-30T09:23:00.864Z,11.56
2018-09-30T09:24:00.861Z,11.57
2018-09-30T09:25:00.821Z,11.52
2018-09-30T09:26:00.818Z,11.53
2018-09-30T09:27:00.803Z,11.50
2018-09-30T09:28:00.849Z,11.59
2018-09-30T09:29:00.775Z,11.61
2018-09-30T09:30:00.773Z,11.57
2018-09-30T09:31:00.760Z,11.50
2018-09-30T09:32:00.741Z,11.46
2018-09-30T09:33:00.770Z,11.47
2018-09-30T09:34:00.729Z,11.49
2018-09-30T09:35:00.723Z,11.49
2018-09-30T09:36:00.701Z,11.59
2018-09-30T09:37:00.687Z,11.62
2018-09-30T09:38:00.751Z,11.68
2018-09-30T09:39:00.668Z,11.82
2018-09-30T09:40:00.649Z,11.83
2018-09-30T09:41:00.669Z,11.83
2018-09-30T09:42:00.646Z,11.89
2018-09-30T09:43:00.648Z,11.86
2018-09-30T09:44:00.606Z,11.90
2018-09-30T09:45:00.612Z,11.96
2018-09-30T09:46:00.591Z,11.90
2018-09-30T09:47:00.643Z,11.82
2018-09-30T09:48:00.587Z,11.96
2018-09-30T09:49:00.555Z,12.05
2018-09-30T09:50:00.547Z,12.24
2018-09-30T09:51:00.567Z,12.26
2018-09-30T09:52:00.516Z,12.24
2018-09-30T09:53:00.542Z,12.29
2018-09-30T09:54:00.499Z,12.29
2018-09-30T09:55:00.483Z,12.51
2018-09-30T09:56:00.479Z,12.57
2018-09-30T09:57:00.478Z,12.59
2018-09-30T09:58:00.473Z,12.45
2018-09-30T09:59:00.463Z,12.57
2018-09-30T10:00:00.426Z,12.54
2018-09-30T10:01:00.422Z,12.54
2018-09-30T10:02:00.421Z,12.56
2018-09-30T10:03:00.480Z,12.57
2018-09-30T10:04:00.401Z,12.67
2018-09-30T10:05:00.384Z,12.67
2018-09-30T10:06:00.357Z,12.60
2018-09-30T10:07:00.359Z,12.70
2018-09-30T10:08:00.371Z,12.71
2018-09-30T10:09:00.328Z,12.69
2018-09-30T10:10:00.327Z,12.74
2018-09-30T10:11:00.313Z,12.74
2018-09-30T10:12:00.299Z,12.71
2018-09-30T10:13:00.318Z,12.75
2018-09-30T10:14:00.268Z,12.74
2018-09-30T10:15:00.263Z,12.85
2018-09-30T10:16:00.250Z,12.93
2018-09-30T10:17:00.291Z,12.96
2018-09-30T10:18:00.254Z,12.93
2018-09-30T10:19:00.239Z,13.02
2018-09-30T10:20:00.208Z,13.04
2018-09-30T10:21:00.197Z,13.11
2018-09-30T10:22:00.183Z,13.04
2018-09-30T10:23:00.194Z,13.03
2018-09-30T10:24:00.169Z,13.03
2018-09-30T10:25:00.210Z,13.18
2018-09-30T10:26:00.134Z,13.18
2018-09-30T10:27:00.133Z,13.20
2018-09-30T10:28:00.114Z,13.25
2018-09-30T10:29:00.127Z,13.24
2018-09-30T10:30:00.089Z,13.24
2018-09-30T10:31:00.125Z,13.27
2018-09-30T10:32:00.115Z,13.32
2018-09-30T10:33:00.056Z,13.30
2018-09-30T10:34:00.070Z,13.32
2018-09-30T10:35:00.084Z,13.33
2018-09-30T10:36:00.046Z,13.36
2018-09-30T10:37:00.013Z,13.30
2018-09-30T10:38:00.003Z,13.29
2018-09-30T10:39:00.219Z,13.41
2018-09-30T10:39:59.979Z,13.38
2018-09-30T10:40:59.974Z,13.38
2018-09-30T10:41:59.970Z,13.41
2018-09-30T10:42:59.945Z,13.40
2018-09-30T10:43:59.968Z,13.44
2018-09-30T10:44:59.932Z,13.47
2018-09-30T10:45:59.921Z,13.58
2018-09-30T10:46:59.910Z,13.71
2018-09-30T10:47:59.913Z,13.69
2018-09-30T10:48:59.902Z,13.88
2018-09-30T10:49:59.865Z,13.77
2018-09-30T10:50:59.901Z,13.84
2018-09-30T10:51:59.850Z,13.91
2018-09-30T10:52:59.837Z,13.80
2018-09-30T10:53:59.877Z,13.79
2018-09-30T10:54:59.819Z,13.80
2018-09-30T10:55:59.802Z,13.83
2018-09-30T10:56:59.872Z,13.80
2018-09-30T10:57:59.782Z,13.80
2018-09-30T10:58:59.795Z,13.81
2018-09-30T10:59:59.794Z,13.80
2018-09-30T11:00:59.749Z,13.84
2018-09-30T11:01:59.733Z,13.84
2018-09-30T11:02:59.720Z,13.89
2018-09-30T11:03:59.735Z,13.87
2018-09-30T11:04:59.710Z,13.80
2018-09-30T11:05:59.690Z,13.87
2018-09-30T11:06:59.704Z,13.80
2018-09-30T11:07:59.672Z,13.94
2018-09-30T11:08:59.677Z,13.92
2018-09-30T11:09:59.662Z,13.89
2018-09-30T11:10:59.631Z,13.84
2018-09-30T11:11:59.678Z,13.95
2018-09-30T11:12:59.610Z,13.94
2018-09-30T11:13:59.637Z,13.87
2018-09-30T11:14:59.595Z,13.89
2018-09-30T11:15:59.626Z,14.02
2018-09-30T11:16:59.564Z,13.98
2018-09-30T11:17:59.566Z,14.04
2018-09-30T11:18:59.631Z,14.10
2018-09-30T11:19:59.545Z,14.13
2018-09-30T11:20:59.530Z,14.07
2018-09-30T11:21:59.512Z,14.19
2018-09-30T11:22:59.499Z,14.14
2018-09-30T11:23:59.505Z,14.25
2018-09-30T11:24:59.478Z,14.24
2018-09-30T11:25:59.472Z,14.14
2018-09-30T11:26:59.471Z,14.20
2018-09-30T11:27:59.448Z,14.24
2018-09-30T11:28:59.455Z,14.14
2018-09-30T11:29:59.461Z,14.24
2018-09-30T11:30:59.412Z,14.16
2018-09-30T11:31:59.492Z,14.35
2018-09-30T11:32:59.386Z,14.28
2018-09-30T11:33:59.399Z,14.32
2018-09-30T11:34:59.365Z,14.44
2018-09-30T11:35:59.368Z,14.57
2018-09-30T11:36:59.349Z,14.60
2018-09-30T11:37:59.325Z,14.54
2018-09-30T11:38:59.340Z,14.64
2018-09-30T11:39:59.311Z,14.62
2018-09-30T11:40:59.311Z,14.64
2018-09-30T11:41:59.296Z,14.64
2018-09-30T11:42:59.283Z,14.67
2018-09-30T11:43:59.291Z,14.61
2018-09-30T11:44:59.260Z,14.64
2018-09-30T11:45:59.236Z,14.68
2018-09-30T11:46:59.235Z,14.64
2018-09-30T11:47:59.249Z,14.64
2018-09-30T11:48:59.234Z,14.68
2018-09-30T11:49:59.195Z,14.56
2018-09-30T11:50:59.200Z,14.50
2018-09-30T11:51:59.226Z,14.54
2018-09-30T11:52:59.167Z,14.54
2018-09-30T11:53:59.202Z,14.64
2018-09-30T11:54:59.148Z,14.71
2018-09-30T11:55:59.136Z,14.71
2018-09-30T11:56:59.119Z,14.78
2018-09-30T11:57:59.114Z,14.81
2018-09-30T11:58:59.120Z,14.74
2018-09-30T11:59:59.082Z,14.80
2018-09-30T12:00:59.075Z,14.84
2018-09-30T12:01:59.096Z,14.87
2018-09-30T12:02:59.059Z,14.88
2018-09-30T12:03:59.059Z,14.98
2018-09-30T12:04:59.032Z,14.91
2018-09-30T12:05:59.020Z,14.86
2018-09-30T12:06:59.034Z,14.84
2018-09-30T12:07:58.997Z,14.83
2018-09-30T12:08:58.988Z,14.93
2018-09-30T12:09:59.015Z,14.86
2018-09-30T12:10:58.969Z,14.95
2018-09-30T12:11:58.961Z,14.88
2018-09-30T12:12:58.957Z,14.98
2018-09-30T12:13:58.926Z,15.01
2018-09-30T12:14:58.941Z,14.94
2018-09-30T12:15:58.904Z,15.01
2018-09-30T12:16:58.896Z,14.99
2018-09-30T12:17:58.933Z,15.01
2018-09-30T12:18:58.870Z,14.95
2018-09-30T12:19:58.886Z,14.98
2018-09-30T12:20:58.850Z,14.93
2018-09-30T12:21:58.852Z,14.95
2018-09-30T12:22:58.823Z,14.95
2018-09-30T12:23:58.814Z,14.91
2018-09-30T12:24:58.824Z,15.06
2018-09-30T12:25:58.919Z,14.99
2018-09-30T12:26:58.788Z,15.13
2018-09-30T12:27:58.776Z,15.11
2018-09-30T12:28:58.754Z,15.06
2018-09-30T12:29:58.823Z,15.20
2018-09-30T12:30:58.739Z,15.13
2018-09-30T12:31:58.724Z,15.24
2018-09-30T12:32:58.724Z,15.27
2018-09-30T12:33:58.715Z,15.26
2018-09-30T12:34:58.720Z,15.31
2018-09-30T12:35:58.678Z,15.30
2018-09-30T12:36:58.716Z,15.27
2018-09-30T12:37:58.657Z,15.33
2018-09-30T12:38:58.648Z,15.36
2018-09-30T12:39:58.667Z,15.30
2018-09-30T12:40:58.661Z,15.24
2018-09-30T12:41:58.610Z,15.27
2018-09-30T12:42:58.603Z,15.26
2018-09-30T12:43:58.595Z,15.26
2018-09-30T12:44:58.653Z,15.30
2018-09-30T12:45:58.574Z,15.31
2018-09-30T12:46:58.560Z,15.33
2018-09-30T12:47:58.544Z,15.28
2018-09-30T12:48:58.552Z,15.30
2018-09-30T12:49:58.542Z,15.28
2018-09-30T12:50:58.517Z,15.42
2018-09-30T12:51:58.516Z,15.36
2018-09-30T12:52:58.516Z,15.36
2018-09-30T12:53:58.488Z,15.35
2018-09-30T12:54:58.491Z,15.42
2018-09-30T12:55:58.480Z,15.46
2018-09-30T12:56:58.447Z,15.45
2018-09-30T12:57:58.435Z,15.43
2018-09-30T12:58:58.426Z,15.57
2018-09-30T12:59:58.439Z,15.57
2018-09-30T13:00:58.432Z,15.63
2018-09-30T13:01:58.388Z,15.63
2018-09-30T13:02:58.378Z,15.56
2018-09-30T13:03:58.378Z,15.48
2018-09-30T13:04:58.379Z,15.48
2018-09-30T13:05:58.352Z,15.41
2018-09-30T13:06:58.333Z,15.43
2018-09-30T13:07:58.322Z,15.39
2018-09-30T13:08:58.324Z,15.28